メインページ
METAR-TAF:

METAR-TAF

空港 :

ミネアポリス, ミネソタ州, アメリカ合衆国

ミネアポリス・セントポール国際空港

緯度: 44-52-59N, 経度: 093-13-44W, 海抜: 256m

現時点の気象観測

当レポートは39分前の21:53(UTC)に作成
北西の風 11kt
気温 29°C
湿度 45%
気圧 1015 hPa
視程: 16.1km
高度4000ftの雲はほとんどない
高度30000ftの雲はほとんどない

METAR: KMSP 262153Z 32011KT 10SM FEW040 FEW300 29/16 A2998 RMK AO2 SLP147 T02890156

時間: 17:32 (22:32 UTC)

予報

当レポートは1時間32分前の21:00(UTC)に作成
予報は26日の 21時(UTC)から 27日の 24時(UTC)まで有効
北西の風 6kt
視程: 10km
高度5000ftの雲はほとんどない
27日の 0200時(UTC)から
の風 4kt
視程: 10km
晴天
27日の 1500時(UTC)から
の風 7kt
視程: 10km
高度5000ftの雲は散在している

TAF: KMSP 262100Z 2621/2724 32006KT P6SM FEW050 FM270200 01004KT P6SM SKC FM271500 01007KT P6SM SCT050

4,000以上の空港の気象観測と天気予報(METAR報とTAF報)

利用可能な観測所は地図上に黄色い丸と赤い丸で示す。

丸の上にカーソルを重ねると観測所名を参照できる。

次にクリックすると気象観測と天気予報を参照できる。

マップの切り替え:黒色「×」印の緑ボタンをクリックして拡大、「-」印の緑ボタンをクリックして縮小、緑色の三角印をクリックして隣りの地図に切り替え


METAR-TAF: